Cerlak, Russia
Current Conditions -  °F | °C
As of 3:00 AM on Sunday 26 Oct 2014 (Local Time) from UNOO Reporting Station
Clear Clear  
Wind Chill: -5°   Ceiling: Unl
Heat Index:   Visibility: 6mi
Dew Point:   Wind: 7mph
Humidity: 85%   Direction: 250°WSW
Pressure: 29.94"   Gusts: NA
Location:  54.17°N, 74.8°E
Report Text: UNOO 252100Z 25003MPS CAVOK M14/M16 Q1014 25450550 NOSIG RMKQFE752
Loading
Personal Weather Stations






























Interactive Weather Map
Tropical Storm Tracking
New forecast layout! Learn more

10-Day Weather Forecast

Advertisements
Track Severe Weather on mobile